Annapolis Royal, Canada
Current Conditions -  °F | °C
As of 3:00 PM on Thursday 18 Dec 2014 (Local Time) from CYZX Reporting Station
Rain Showers Rain Showers  
Wind Chill: 27°   Ceiling: 1400
Heat Index: 36°   Visibility: 4mi
Dew Point: 34°   Wind: 13mph
Humidity: 93%   Direction: 250°WSW
Pressure: 29.39"   Gusts: 21mph
Location:  44.73°N, 65.52°W
Report Text: CYZX 181900Z 25011G18KT 4SM -SHRA BR SCT009 OVC014 02/01 A2939 RMK SF3SC5 WNDY HILL 29008KT -SN NW SLP955
Loading
Personal Weather Stations






























Interactive Weather Map New forecast layout! Learn more

10-Day Weather Forecast

Advertisements
Track Severe Weather on mobile